createdAt,value
2023-05-18T00:00:49.814Z,101425.16
2023-05-18T00:05:51.664Z,101417.63
2023-05-18T00:10:55.200Z,101422.19
2023-05-18T00:15:57.368Z,101410.44
2023-05-18T00:20:59.280Z,101419.44
2023-05-18T00:26:02.990Z,101417.75
2023-05-18T00:31:04.736Z,101415.09
2023-05-18T00:36:07.086Z,101422.19
2023-05-18T00:41:10.221Z,101412.16
2023-05-18T00:46:12.009Z,101415.22
2023-05-18T00:51:14.191Z,101416.50
2023-05-18T00:56:17.727Z,101413.31
2023-05-18T01:01:20.576Z,101416.19
2023-05-18T01:06:22.850Z,101414.69
2023-05-18T01:11:38.100Z,101406.34
2023-05-18T01:16:45.440Z,101414.91
2023-05-18T01:21:56.583Z,101413.19
2023-05-18T01:27:00.688Z,101416.69
2023-05-18T01:32:06.704Z,101416.06
2023-05-18T01:37:08.454Z,101419.03
2023-05-18T01:42:15.451Z,101410.13
2023-05-18T01:47:18.211Z,101405.59
2023-05-18T01:52:22.947Z,101409.53
2023-05-18T01:57:29.481Z,101409.34
2023-05-18T02:02:31.544Z,101413.16
2023-05-18T02:07:33.290Z,101401.38
2023-05-18T02:12:36.583Z,101402.34
2023-05-18T02:17:38.429Z,101404.38
2023-05-18T02:22:40.198Z,101401.38
2023-05-18T02:27:43.310Z,101404.25
2023-05-18T02:32:45.262Z,101416.16
2023-05-18T02:37:46.991Z,101410.38
2023-05-18T02:42:50.043Z,101409.19
2023-05-18T02:47:51.889Z,101412.22
2023-05-18T02:52:53.588Z,101414.34
2023-05-18T02:57:56.669Z,101402.53
2023-05-18T03:02:58.534Z,101407.47
2023-05-18T03:08:00.298Z,101418.31
2023-05-18T03:13:03.385Z,101407.06
2023-05-18T03:18:05.510Z,101412.84
2023-05-18T03:23:07.272Z,101410.56
2023-05-18T03:28:10.378Z,101422.09
2023-05-18T03:33:12.181Z,101416.00
2023-05-18T03:38:14.000Z,101421.50
2023-05-18T03:43:17.098Z,101418.47
2023-05-18T03:48:18.906Z,101425.38
2023-05-18T03:53:20.668Z,101423.09
2023-05-18T03:58:23.716Z,101424.22
2023-05-18T04:03:25.583Z,101421.91
2023-05-18T04:08:27.457Z,101423.81
2023-05-18T04:13:30.726Z,101428.94
2023-05-18T04:18:32.522Z,101424.78
2023-05-18T04:23:34.300Z,101432.63
2023-05-18T04:28:37.341Z,101432.59
2023-05-18T04:33:39.084Z,101444.22
2023-05-18T04:38:40.786Z,101440.63
2023-05-18T04:43:43.881Z,101440.25
2023-05-18T04:48:45.534Z,101437.09
2023-05-18T04:53:47.574Z,101449.97
2023-05-18T04:58:50.794Z,101449.28
2023-05-18T05:03:52.580Z,101453.19
2023-05-18T05:08:54.652Z,101448.72
2023-05-18T05:13:57.856Z,101446.56
2023-05-18T05:18:59.584Z,101444.38
2023-05-18T05:24:01.285Z,101445.47
2023-05-18T05:29:04.328Z,101448.34
2023-05-18T05:34:05.982Z,101451.56
2023-05-18T05:39:07.663Z,101443.81
2023-05-18T05:44:10.831Z,101453.03
2023-05-18T05:49:12.578Z,101452.78
2023-05-18T05:54:14.558Z,101450.56
2023-05-18T05:59:17.690Z,101450.16
2023-05-18T06:04:19.358Z,101453.03
2023-05-18T06:09:21.082Z,101458.56
2023-05-18T06:14:24.360Z,101465.06
2023-05-18T06:19:26.107Z,101464.84
2023-05-18T06:24:27.819Z,101460.72
2023-05-18T06:29:30.885Z,101462.28
2023-05-18T06:34:32.586Z,101463.09
2023-05-18T06:39:34.282Z,101469.53
2023-05-18T06:44:37.279Z,101471.53
2023-05-18T06:49:38.990Z,101461.63
2023-05-18T06:54:40.685Z,101462.47
2023-05-18T06:59:43.740Z,101457.28
2023-05-18T07:04:45.472Z,101462.16
2023-05-18T07:09:47.155Z,101458.31
2023-05-18T07:14:50.298Z,101452.06
2023-05-18T07:19:52.094Z,101449.78
2023-05-18T07:24:53.805Z,101452.63
2023-05-18T07:29:56.945Z,101456.31
2023-05-18T07:34:58.705Z,101443.31
2023-05-18T07:40:00.397Z,101437.16
2023-05-18T07:45:03.894Z,101438.31
2023-05-18T07:50:06.568Z,101446.16
2023-05-18T07:55:08.803Z,101436.28
2023-05-18T08:00:13.577Z,101429.41
2023-05-18T08:05:15.285Z,101424.69
2023-05-18T08:10:16.938Z,101420.47
2023-05-18T08:15:20.078Z,101415.09
2023-05-18T08:20:21.779Z,101411.19
2023-05-18T08:25:23.830Z,101407.75
2023-05-18T08:30:26.974Z,101411.34
2023-05-18T08:35:29.081Z,101401.13
2023-05-18T08:40:38.537Z,101400.00
2023-05-18T08:45:48.900Z,101393.00
2023-05-18T08:50:53.322Z,101403.31
2023-05-18T08:55:56.349Z,101400.81
2023-05-18T09:01:03.759Z,101390.59
2023-05-18T09:06:07.017Z,101383.16
2023-05-18T09:11:08.973Z,101382.28
2023-05-18T09:16:12.112Z,101381.53
2023-05-18T09:21:13.826Z,101373.00
2023-05-18T09:26:15.732Z,101380.31
2023-05-18T09:31:20.790Z,101377.31
2023-05-18T09:36:26.316Z,101367.91
2023-05-18T09:41:28.095Z,101359.78
2023-05-18T09:46:35.820Z,101357.13
2023-05-18T09:51:38.278Z,101373.69
2023-05-18T09:56:39.961Z,101352.97
2023-05-18T10:01:57.305Z,101365.81
2023-05-18T10:06:59.010Z,101349.16
2023-05-18T10:12:00.725Z,101346.03
2023-05-18T10:17:14.930Z,101340.97
2023-05-18T10:22:18.193Z,101334.72
2023-05-18T10:27:26.862Z,101330.88
2023-05-18T10:32:30.638Z,101330.38
2023-05-18T10:37:35.180Z,101333.69
2023-05-18T10:42:38.212Z,101323.50
2023-05-18T10:47:43.427Z,101331.22
2023-05-18T10:52:48.411Z,101320.16
2023-05-18T10:57:54.838Z,101333.59
2023-05-18T11:03:01.430Z,101320.44
2023-05-18T11:08:03.750Z,101314.22
2023-05-18T11:13:05.584Z,101313.56
2023-05-18T11:18:15.511Z,101312.16
2023-05-18T11:23:17.357Z,101304.31
2023-05-18T11:28:22.546Z,101298.28
2023-05-18T11:33:28.194Z,101304.59
2023-05-18T11:38:48.464Z,101300.69
2023-05-18T11:43:58.940Z,101292.25
2023-05-18T11:49:04.521Z,101290.13
2023-05-18T11:54:08.295Z,101290.84
2023-05-18T11:59:14.203Z,101290.72
2023-05-18T12:04:19.262Z,101288.47
2023-05-18T12:09:21.164Z,101275.28
2023-05-18T12:14:23.293Z,101270.91
2023-05-18T12:19:26.529Z,101264.75
2023-05-18T12:24:28.937Z,101261.41
2023-05-18T12:29:30.854Z,101277.53
2023-05-18T12:34:34.133Z,101263.78
2023-05-18T12:39:35.986Z,101269.13
2023-05-18T12:44:37.839Z,101256.91
2023-05-18T12:49:43.011Z,101244.84
2023-05-18T12:54:48.949Z,101241.34
2023-05-18T12:59:50.788Z,101243.19
2023-05-18T13:05:01.906Z,101248.50
2023-05-18T13:10:08.161Z,101231.09
2023-05-18T13:15:14.060Z,101228.88
2023-05-18T13:20:17.200Z,101220.72
2023-05-18T13:25:18.979Z,101225.25
2023-05-18T13:30:21.013Z,101215.69
2023-05-18T13:35:24.102Z,101222.72
2023-05-18T13:40:25.941Z,101211.63
2023-05-18T13:45:27.728Z,101198.28
2023-05-18T13:50:33.777Z,101192.72
2023-05-18T13:55:35.913Z,101189.47
2023-05-18T14:00:37.668Z,101194.38
2023-05-18T14:05:41.095Z,101191.72
2023-05-18T14:10:42.771Z,101182.06
2023-05-18T14:15:44.479Z,101181.38
2023-05-18T14:20:47.665Z,101149.28
2023-05-18T14:25:49.406Z,101173.09
2023-05-18T14:30:51.139Z,101152.59
2023-05-18T14:35:54.229Z,101156.25
2023-05-18T14:40:56.115Z,101170.00
2023-05-18T14:46:08.182Z,101151.78
2023-05-18T14:51:12.167Z,101154.84
2023-05-18T14:56:13.913Z,101149.69
2023-05-18T15:01:15.704Z,101141.13
2023-05-18T15:06:19.146Z,101134.28
2023-05-18T15:11:20.928Z,101152.88
2023-05-18T15:16:22.738Z,101140.72
2023-05-18T15:21:26.076Z,101143.41
2023-05-18T15:26:27.945Z,101140.72
2023-05-18T15:31:29.688Z,101133.47
2023-05-18T15:36:32.988Z,101141.72
2023-05-18T15:41:35.117Z,101131.63
2023-05-18T15:46:36.834Z,101136.69
2023-05-18T15:51:40.227Z,101128.72
2023-05-18T15:56:41.982Z,101131.22
2023-05-18T16:01:43.769Z,101133.47
2023-05-18T16:06:46.959Z,101124.09
2023-05-18T16:11:48.704Z,101117.91
2023-05-18T16:16:50.498Z,101128.84
2023-05-18T16:21:53.533Z,101126.63
2023-05-18T16:26:55.298Z,101122.41
2023-05-18T16:31:57.147Z,101135.47
2023-05-18T16:37:00.342Z,101126.91
2023-05-18T16:42:02.046Z,101123.44
2023-05-18T16:47:03.929Z,101120.22
2023-05-18T16:52:07.506Z,101120.75
2023-05-18T16:57:09.197Z,101131.09
2023-05-18T17:02:11.026Z,101122.16
2023-05-18T17:07:14.130Z,101128.59
2023-05-18T17:12:15.885Z,101121.72
2023-05-18T17:17:17.843Z,101126.63
2023-05-18T17:22:20.923Z,101126.34
2023-05-18T17:27:22.678Z,101126.78
2023-05-18T17:32:24.509Z,101130.97
2023-05-18T17:37:27.655Z,101127.91
2023-05-18T17:42:29.363Z,101128.31
2023-05-18T17:47:31.077Z,101125.53
2023-05-18T17:52:34.114Z,101134.22
2023-05-18T17:57:35.997Z,101125.53
2023-05-18T18:02:37.724Z,101134.63
2023-05-18T18:07:40.855Z,101137.56
2023-05-18T18:12:42.764Z,101139.69
2023-05-18T18:17:44.798Z,101139.41
2023-05-18T18:22:48.000Z,101136.44
2023-05-18T18:27:50.200Z,101145.44
2023-05-18T18:32:51.879Z,101145.13
2023-05-18T18:37:54.926Z,101160.84
2023-05-18T18:42:56.629Z,101160.97
2023-05-18T18:47:58.913Z,101159.69
2023-05-18T18:53:02.004Z,101170.91
2023-05-18T18:58:03.688Z,101169.38
2023-05-18T19:03:05.431Z,101175.81
2023-05-18T19:08:08.676Z,101180.28
2023-05-18T19:13:10.453Z,101188.84
2023-05-18T19:18:12.142Z,101196.41
2023-05-18T19:23:15.384Z,101207.34
2023-05-18T19:28:17.109Z,101207.88
2023-05-18T19:33:18.905Z,101210.56
2023-05-18T19:38:22.030Z,101216.00
2023-05-18T19:43:23.794Z,101224.66
2023-05-18T19:48:25.638Z,101222.03
2023-05-18T19:53:28.714Z,101227.31
2023-05-18T19:58:30.427Z,101236.53
2023-05-18T20:03:32.261Z,101248.09
2023-05-18T20:08:35.459Z,101243.44
2023-05-18T20:13:37.114Z,101248.06
2023-05-18T20:18:38.816Z,101252.47
2023-05-18T20:23:41.968Z,101250.06
2023-05-18T20:28:43.663Z,101246.94
2023-05-18T20:33:45.389Z,101255.16
2023-05-18T20:38:48.446Z,101259.22
2023-05-18T20:43:50.156Z,101264.81
2023-05-18T20:48:51.989Z,101274.53
2023-05-18T20:53:55.090Z,101273.00
2023-05-18T20:58:56.796Z,101279.63
2023-05-18T21:03:58.736Z,101286.53
2023-05-18T21:09:02.152Z,101284.03
2023-05-18T21:14:03.836Z,101276.59
2023-05-18T21:19:05.674Z,101276.97
2023-05-18T21:24:08.870Z,101273.72
2023-05-18T21:29:10.596Z,101272.31
2023-05-18T21:34:12.302Z,101270.97
2023-05-18T21:39:15.483Z,101278.84
2023-05-18T21:44:17.229Z,101278.47
2023-05-18T21:49:18.902Z,101277.94
2023-05-18T21:54:21.965Z,101276.84
2023-05-18T21:59:23.626Z,101279.69
2023-05-18T22:04:25.481Z,101278.03
2023-05-18T22:09:28.763Z,101292.66
2023-05-18T22:14:30.597Z,101291.44
2023-05-18T22:19:32.340Z,101289.63
2023-05-18T22:24:35.442Z,101295.31
2023-05-18T22:29:37.235Z,101284.81
2023-05-18T22:34:38.947Z,101279.41
2023-05-18T22:39:42.152Z,101282.16
2023-05-18T22:44:44.318Z,101284.47
2023-05-18T22:49:46.221Z,101284.22
2023-05-18T22:54:49.808Z,101290.50
2023-05-18T22:59:51.495Z,101290.00
2023-05-18T23:04:53.183Z,101289.56
2023-05-18T23:09:56.247Z,101288.56
2023-05-18T23:14:58.114Z,101296.41
2023-05-18T23:20:00.979Z,101292.06
2023-05-18T23:25:04.947Z,101290.75
2023-05-18T23:30:07.523Z,101283.75
2023-05-18T23:35:12.536Z,101287.72
2023-05-18T23:40:18.316Z,101292.44
2023-05-18T23:45:21.121Z,101292.66
2023-05-18T23:50:23.605Z,101291.22
2023-05-18T23:55:27.826Z,101286.28
